Time;durP1;ratioP1;P1;durP2;ratioP2;P2;SDS_P1;SDS_P2;PMS_P1;PMS_P2;Temp;Humidity;BMP_temperature;BMP_pressure;BME280_temperature;BME280_humidity;BME280_pressure;Samples;Min_cycle;Max_cycle;Signal;HPM_P1;HPM_P2
2021/08/11 00:01:25;;;;;;;2.55;1.60;;;;;;;;;;4928559;29;20078;-86
2021/08/11 00:03:51;;;;;;;4.50;1.40;;;;;;;;;;4911297;29;20059;-85
2021/08/11 00:06:17;;;;;;;2.33;1.73;;;;;;;;;;4912291;29;20059;-85
2021/08/11 00:08:46;;;;;;;3.47;1.75;;;;;;;;;;4914950;29;20156;-86
2021/08/11 00:11:13;;;;;;;2.13;1.83;;;;;;;;;;4928361;29;20024;-85
2021/08/11 00:13:39;;;;;;;4.20;2.00;;;;;;;;;;4928831;29;20040;-86
2021/08/11 00:16:05;;;;;;;3.47;1.65;;;;;;;;;;4928509;29;20050;-86
2021/08/11 00:18:32;;;;;;;2.95;1.77;;;;;;;;;;4930202;29;20031;-85
2021/08/11 00:20:58;;;;;;;8.35;1.52;;;;;;;;;;4911917;29;20028;-86
2021/08/11 00:23:25;;;;;;;4.18;1.60;;;;;;;;;;4931424;29;20098;-85
2021/08/11 00:25:54;;;;;;;4.07;1.80;;;20.60;72.00;;;;;;4930307;29;20036;-85
2021/08/11 00:28:24;;;;;;;7.85;1.30;;;20.60;71.80;;;;;;4932914;29;20036;-86
2021/08/11 00:30:53;;;;;;;4.60;1.77;;;20.50;71.70;;;;;;4934172;29;20050;-85
2021/08/11 00:33:20;;;;;;;4.32;2.00;;;20.50;72.10;;;;;;4932279;29;20043;-85
2021/08/11 00:35:46;;;;;;;4.15;2.65;;;;;;;;;;4935244;29;20026;-85
2021/08/11 00:38:12;;;;;;;2.90;2.08;;;;;;;;;;4932094;29;20048;-85
2021/08/11 00:40:38;;;;;;;4.40;2.22;;;;;;;;;;4917081;29;20028;-85
2021/08/11 00:43:08;;;;;;;3.33;1.40;;;;;;;;;;4915243;29;20043;-85
2021/08/11 00:45:34;;;;;;;2.50;1.60;;;20.20;72.70;;;;;;4933512;29;20028;-85
2021/08/11 00:48:00;;;;;;;9.23;2.03;;;;;;;;;;4934186;29;20513;-86
2021/08/11 00:50:26;;;;;;;2.70;1.55;;;;;;;;;;4932835;29;20118;-86
2021/08/11 00:52:52;;;;;;;5.03;1.90;;;;;;;;;;4932102;29;20050;-86
2021/08/11 00:55:20;;;;;;;5.18;1.70;;;20.10;73.60;;;;;;4914985;29;20052;-84
2021/08/11 00:57:46;;;;;;;;;;;20.20;74.00;;;;;;4919121;29;20116;-86
2021/08/11 01:00:13;;;;;;;3.85;2.42;;;20.10;73.80;;;;;;4933278;29;20021;-85
2021/08/11 01:02:39;;;;;;;7.35;3.47;;;;;;;;;;4917259;29;20034;-86
2021/08/11 01:05:06;;;;;;;11.75;2.80;;;;;;;;;;4931363;29;20059;-85
2021/08/11 01:07:34;;;;;;;4.78;2.45;;;20.10;74.50;;;;;;4931408;29;20032;-85
2021/08/11 01:10:00;;;;;;;2.53;1.80;;;;;;;;;;4932806;29;20497;-85
2021/08/11 01:12:27;;;;;;;2.92;1.65;;;;;;;;;;4933072;29;20036;-85
2021/08/11 01:14:54;;;;;;;5.28;1.75;;;20.00;74.30;;;;;;4934296;29;20032;-85
2021/08/11 01:17:28;;;;;;;7.07;2.95;;;20.10;73.90;;;;;;4916778;29;20043;-86
2021/08/11 01:19:58;;;;;;;2.85;1.58;;;;;;;;;;4930749;29;20138;-86
2021/08/11 01:22:27;;;;;;;4.32;2.08;;;;;;;;;;4932867;29;20552;-85
2021/08/11 01:24:54;;;;;;;2.97;1.70;;;;;;;;;;4932700;29;20031;-85
2021/08/11 01:27:28;;;;;;;3.85;2.15;;;;;;;;;;4932162;29;20112;-85
2021/08/11 01:30:00;;;;;;;2.80;2.10;;;;;;;;;;4930817;29;20055;-85
2021/08/11 01:32:47;;;;;;;2.03;1.55;;;19.90;74.50;;;;;;4933755;29;20047;-86
2021/08/11 01:35:17;;;;;;;4.15;1.83;;;20.00;73.30;;;;;;4930549;29;20056;-85
2021/08/11 01:37:44;;;;;;;2.92;1.98;;;;;;;;;;4930604;29;20039;-85
2021/08/11 01:40:16;;;;;;;6.35;1.73;;;20.00;73.10;;;;;;4913993;29;20056;-85
2021/08/11 01:42:44;;;;;;;4.10;1.60;;;;;;;;;;4934144;29;20189;-85
2021/08/11 01:45:13;;;;;;;4.80;1.50;;;;;;;;;;4932291;29;20039;-84
2021/08/11 01:47:45;;;;;;;3.55;1.80;;;19.70;74.50;;;;;;4932637;29;20028;-85
2021/08/11 01:50:14;;;;;;;3.17;2.15;;;19.60;75.40;;;;;;4916076;29;20066;-85
2021/08/11 01:52:43;;;;;;;3.83;2.42;;;;;;;;;;4930779;29;20043;-85
2021/08/11 01:55:10;;;;;;;2.85;1.58;;;;;;;;;;4931023;29;20471;-84
2021/08/11 01:57:43;;;;;;;3.05;1.88;;;19.80;73.90;;;;;;4930586;29;20047;-85
2021/08/11 02:00:09;;;;;;;4.72;2.17;;;;;;;;;;4914111;29;20136;-86
2021/08/11 02:02:37;;;;;;;4.00;2.97;;;19.70;73.30;;;;;;4930513;29;20039;-85
2021/08/11 02:05:08;;;;;;;3.40;1.83;;;19.70;74.00;;;;;;4932165;29;20731;-85
2021/08/11 02:07:34;;;;;;;3.55;2.08;;;;;;;;;;4930290;29;20071;-85
2021/08/11 02:10:01;;;;;;;2.53;1.60;;;;;;;;;;4931211;29;20498;-84
2021/08/11 02:12:27;;;;;;;5.25;2.25;;;;;;;;;;4915105;29;20048;-85
2021/08/11 02:14:53;;;;;;;3.63;2.22;;;;;;;;;;4932884;29;20075;-85
2021/08/11 02:17:22;;;;;;;2.55;1.50;;;;;;;;;;4931130;29;20114;-85
2021/08/11 02:19:48;;;;;;;3.45;1.63;;;;;;;;;;4930004;29;20031;-85
2021/08/11 02:22:14;;;;;;;2.70;1.98;;;;;;;;;;4930512;29;20515;-86
2021/08/11 02:24:40;;;;;;;2.10;1.70;;;;;;;;;;4931250;29;20035;-85
2021/08/11 02:27:15;;;;;;;5.72;2.45;;;19.50;75.20;;;;;;4913519;29;20036;-84
2021/08/11 02:29:41;;;;;;;2.72;1.90;;;;;;;;;;4931897;29;20532;-85
2021/08/11 02:32:19;;;;;;;5.63;3.00;;;;;;;;;;4930240;29;20064;-86
2021/08/11 02:35:02;;;;;;;5.55;2.17;;;;;;;;;;4930860;29;20028;-85
2021/08/11 02:37:57;;;;;;;2.88;1.67;;;19.50;74.40;;;;;;4931842;29;20067;-84
2021/08/11 02:40:33;;;;;;;7.47;2.42;;;;;;;;;;4911775;29;20035;-86
2021/08/11 02:43:05;;;;;;;5.15;2.17;;;19.50;74.00;;;;;;4919776;29;20039;-85
2021/08/11 02:45:32;;;;;;;3.83;1.67;;;19.50;73.90;;;;;;4915439;29;20504;-85
2021/08/11 02:47:58;;;;;;;;;;;;;;;;;;4933094;29;20116;-84
2021/08/11 02:50:24;;;;;;;5.40;2.22;;;;;;;;;;4915217;29;19997;-85
2021/08/11 02:52:50;;;;;;;3.40;2.15;;;;;;;;;;4928793;29;20107;-85
2021/08/11 02:55:16;;;;;;;1.90;1.70;;;;;;;;;;4929601;29;20040;-85
2021/08/11 02:57:42;;;;;;;4.28;2.45;;;;;;;;;;4929604;29;20039;-85
2021/08/11 03:00:09;;;;;;;3.47;1.95;;;19.30;92.40;;;;;;4931199;29;20032;-85
2021/08/11 03:02:35;;;;;;;2.15;1.55;;;;;;;;;;4929883;29;20020;-85
2021/08/11 03:05:01;;;;;;;3.70;1.80;;;;;;;;;;4915156;29;20054;-85
2021/08/11 03:07:28;;;;;;;2.50;1.60;;;19.40;75.50;;;;;;4928772;29;20051;-85
2021/08/11 03:09:54;;;;;;;5.85;2.53;;;;;;;;;;4928792;29;20023;-85
2021/08/11 03:12:20;;;;;;;3.75;2.42;;;;;;;;;;4914883;29;20048;-85
2021/08/11 03:14:48;;;;;;;7.57;2.38;;;;;;;;;;4932694;29;20091;-86
2021/08/11 03:17:15;;;;;;;7.57;2.50;;;;;;;;;;4928799;29;20043;-85
2021/08/11 03:19:41;;;;;;;5.75;2.08;;;;;;;;;;4929460;29;20052;-85
2021/08/11 03:22:09;;;;;;;2.83;2.05;;;;;;;;;;4931761;29;20056;-84
2021/08/11 03:24:35;;;;;;;3.42;1.95;;;;;;;;;;4929389;29;20032;-85
2021/08/11 03:27:01;;;;;;;4.28;1.40;;;;;;;;;;4930992;29;20034;-85
2021/08/11 03:29:27;;;;;;;4.43;2.17;;;;;;;;;;4929657;29;20075;-85
2021/08/11 03:31:52;;;;;;;2.88;1.40;;;;;;;;;;4929402;29;20436;-86
2021/08/11 03:34:18;;;;;;;4.63;2.28;;;;;;;;;;4931050;29;20078;-85
2021/08/11 03:36:44;;;;;;;3.30;1.45;;;;;;;;;;4924004;29;20565;-85
2021/08/11 03:39:10;;;;;;;2.83;1.65;;;;;;;;;;4930335;29;20099;-85
2021/08/11 03:41:36;;;;;;;2.72;1.80;;;;;;;;;;4930759;29;20050;-85
2021/08/11 03:44:03;;;;;;;5.20;2.30;;;;;;;;;;4924960;29;20398;-86
2021/08/11 03:46:30;;;;;;;6.53;1.80;;;;;;;;;;4930221;29;20397;-85
2021/08/11 03:48:56;;;;;;;3.78;1.75;;;;;;;;;;4910951;29;20024;-85
2021/08/11 03:51:22;;;;;;;6.03;2.65;;;;;;;;;;4930819;29;20031;-86
2021/08/11 03:53:48;;;;;;;5.50;1.80;;;;;;;;;;4915421;29;20107;-85
2021/08/11 03:56:14;;;;;;;4.82;2.00;;;;;;;;;;4911208;29;20441;-85
2021/08/11 03:58:40;;;;;;;3.15;1.80;;;;;;;;;;4909832;29;20032;-85
2021/08/11 04:01:06;;;;;;;2.80;1.58;;;;;;;;;;4909656;29;20040;-85
2021/08/11 04:03:33;;;;;;;3.08;2.17;;;;;;;;;;4912143;29;20065;-85
2021/08/11 04:05:59;;;;;;;3.67;2.15;;;;;;;;;;4915810;29;20064;-86
2021/08/11 04:08:25;;;;;;;5.25;2.15;;;;;;;;;;4914194;29;20490;-86
2021/08/11 04:10:52;;;;;;;5.25;2.53;;;;;;;;;;4913403;29;20043;-86
2021/08/11 04:13:19;;;;;;;;;;;19.10;74.70;;;;;;4915170;29;20386;-85
2021/08/11 04:15:46;;;;;;;3.17;1.20;;;19.10;74.70;;;;;;4913615;29;19979;-85
2021/08/11 04:18:12;;;;;;;3.38;1.60;;;;;;;;;;4915619;29;20124;-84
2021/08/11 04:20:39;;;;;;;9.40;2.90;;;18.90;75.60;;;;;;4916009;29;20032;-85
2021/08/11 04:23:06;;;;;;;3.30;1.83;;;18.90;75.40;;;;;;4913564;29;20040;-85
2021/08/11 04:25:36;;;;;;;;;;;;;;;;;;4915680;29;20032;-85
2021/08/11 04:28:02;;;;;;;7.28;1.92;;;;;;;;;;4913692;29;19922;-85
2021/08/11 04:30:28;;;;;;;3.13;2.17;;;;;;;;;;4913560;29;20061;-85
2021/08/11 04:32:54;;;;;;;3.40;1.83;;;;;;;;;;4912102;29;20625;-85
2021/08/11 04:35:19;;;;;;;5.03;1.85;;;;;;;;;;4916404;29;20056;-85
2021/08/11 04:37:46;;;;;;;3.63;3.17;;;;;;;;;;4917681;29;20040;-86
2021/08/11 04:40:13;;;;;;;3.67;1.88;;;;;;;;;;4911777;29;20542;-85
2021/08/11 04:42:39;;;;;;;5.50;1.92;;;;;;;;;;4926444;29;20036;-84
2021/08/11 04:45:05;;;;;;;2.85;1.60;;;;;;;;;;4915374;29;20024;-84
2021/08/11 04:47:31;;;;;;;5.63;1.80;;;;;;;;;;4913716;29;20595;-85
2021/08/11 04:49:57;;;;;;;3.60;1.85;;;;;;;;;;4911392;29;20036;-85
2021/08/11 04:52:23;;;;;;;3.08;1.90;;;;;;;;;;4920236;29;20457;-85
2021/08/11 04:54:49;;;;;;;2.55;1.60;;;;;;;;;;4922152;29;20032;-85
2021/08/11 04:57:15;;;;;;;1.95;1.50;;;;;;;;;;4943375;29;20547;-86
2021/08/11 04:59:41;;;;;;;3.15;1.67;;;;;;;;;;4943201;29;20028;-85
2021/08/11 05:02:07;;;;;;;3.33;1.92;;;;;;;;;;4946909;29;20058;-86
2021/08/11 05:04:33;;;;;;;2.75;1.60;;;;;;;;;;4928744;29;20042;-85
2021/08/11 05:06:59;;;;;;;3.28;1.63;;;;;;;;;;4922503;29;20047;-84
2021/08/11 05:09:25;;;;;;;3.47;2.08;;;;;;;;;;4932579;29;20114;-85
2021/08/11 05:11:51;;;;;;;9.35;2.10;;;;;;;;;;4934538;29;20058;-85
2021/08/11 05:14:17;;;;;;;5.60;3.15;;;;;;;;;;4930260;29;20031;-85
2021/08/11 05:16:43;;;;;;;3.53;2.00;;;;;;;;;;4916209;29;20059;-85
2021/08/11 05:19:09;;;;;;;3.78;1.90;;;;;;;;;;4931172;29;20031;-85
2021/08/11 05:21:37;;;;;;;4.03;2.80;;;;;;;;;;4931380;29;20024;-86
2021/08/11 05:24:03;;;;;;;3.67;2.72;;;;;;;;;;4914615;29;20119;-86
2021/08/11 05:26:29;;;;;;;4.22;2.15;;;;;;;;;;4928169;29;20151;-85
2021/08/11 05:28:55;;;;;;;4.60;1.90;;;;;;;;;;4917091;29;20524;-86
2021/08/11 05:31:21;;;;;;;5.03;2.20;;;;;;;;;;4921531;29;20035;-85
2021/08/11 05:33:47;;;;;;;3.10;2.33;;;;;;;;;;4939817;29;20032;-86
2021/08/11 05:36:13;;;;;;;4.85;2.17;;;;;;;;;;4947496;29;20034;-85
2021/08/11 05:38:40;;;;;;;4.88;2.30;;;;;;;;;;4931423;29;20042;-85
2021/08/11 05:41:06;;;;;;;3.92;2.20;;;;;;;;;;4937866;29;20050;-95
2021/08/11 05:43:33;;;;;;;3.27;2.30;;;;;;;;;;4937332;29;20116;-94
2021/08/11 05:45:59;;;;;;;3.27;1.87;;;;;;;;;;4931184;29;20268;-93
2021/08/11 05:48:25;;;;;;;5.85;2.15;;;;;;;;;;4919773;29;20272;-93
2021/08/11 05:50:51;;;;;;;3.95;2.10;;;;;;;;;;4936839;29;20051;-93
2021/08/11 05:53:17;;;;;;;4.78;2.10;;;;;;;;;;4935378;29;20075;-91
2021/08/11 05:55:43;;;;;;;3.25;2.10;;;;;;;;;;4935350;29;20048;-91
2021/08/11 05:58:12;;;;;;;3.50;2.30;;;;;;;;;;4933857;29;20493;-91
2021/08/11 06:00:39;;;;;;;4.30;1.92;;;;;;;;;;4931850;29;20442;-90
2021/08/11 06:03:05;;;;;;;5.13;3.13;;;;;;;;;;4936060;29;20473;-90
2021/08/11 06:05:31;;;;;;;4.82;2.83;;;;;;;;;;4934624;29;20059;-90
2021/08/11 06:07:57;;;;;;;8.05;1.98;;;;;;;;;;4921304;29;20039;-95
2021/08/11 06:10:23;;;;;;;5.03;2.10;;;;;;;;;;4936124;29;20587;-95
2021/08/11 06:12:53;;;;;;;5.75;3.83;;;;;;;;;;4929607;29;20039;-94
2021/08/11 06:15:19;;;;;;;8.18;2.92;;;;;;;;;;4949610;29;20024;-91
2021/08/11 06:17:47;;;;;;;8.13;1.70;;;20.40;73.90;;;;;;4914862;29;20047;-90
2021/08/11 06:20:14;;;;;;;4.38;2.13;;;;;;;;;;4952959;29;20024;-89
2021/08/11 06:22:40;;;;;;;3.83;2.03;;;;;;;;;;4948345;29;20032;-91
2021/08/11 06:25:06;;;;;;;2.15;1.70;;;;;;;;;;4934468;29;20040;-91
2021/08/11 06:27:32;;;;;;;3.28;2.00;;;;;;;;;;4917499;29;20514;-89
2021/08/11 06:29:58;;;;;;;3.60;2.20;;;;;;;;;;4934363;29;20032;-88
2021/08/11 06:32:24;;;;;;;2.85;2.17;;;;;;;;;;4917577;29;20050;-90
2021/08/11 06:34:50;;;;;;;1.98;1.52;;;;;;;;;;4931060;29;20061;-89
2021/08/11 06:37:16;;;;;;;3.47;2.17;;;;;;;;;;4934448;29;20048;-89
2021/08/11 06:39:42;;;;;;;5.60;2.72;;;;;;;;;;4934351;29;20370;-89
2021/08/11 06:42:08;;;;;;;3.85;1.95;;;;;;;;;;4915984;29;20032;-89
2021/08/11 06:44:34;;;;;;;3.05;2.28;;;;;;;;;;4926976;29;20028;-91
2021/08/11 06:47:00;;;;;;;3.70;1.88;;;;;;;;;;4916898;29;20557;-92
2021/08/11 06:49:26;;;;;;;6.10;2.88;;;;;;;;;;4934185;29;20031;-90
2021/08/11 06:51:52;;;;;;;10.98;3.70;;;;;;;;;;4917133;29;20424;-91
2021/08/11 06:54:18;;;;;;;4.68;2.50;;;;;;;;;;4935255;29;20028;-89
2021/08/11 06:56:47;;;;;;;3.88;2.60;;;;;;;;;;4936628;29;20052;-95
2021/08/11 06:59:13;;;;;;;4.80;2.47;;;;;;;;;;4938460;29;20039;-95
2021/08/11 07:01:45;;;;;;;7.50;2.45;;;;;;;;;;4932229;29;20034;-96
2021/08/11 07:06:55;;;;;;;4.40;2.33;;;;;;;;;;5220434;23;20062;-96
2021/08/11 07:09:25;;;;;;;4.78;2.28;;;;;;;;;;4957325;29;20568;-96
2021/08/11 07:17:03;;;;;;;3.72;2.35;;;;;;;;;;5037921;23;20055;-96
2021/08/11 07:19:40;;;;;;;5.45;2.05;;;;;;;;;;4914933;29;20020;-96
2021/08/11 07:23:02;;;;;;;3.55;1.95;;;31.50;46.80;;;;;;4947127;29;20055;-96
2021/08/11 07:33:44;;;;;;;5.90;1.67;;;;;;;;;;5911176;23;20141;-96
2021/08/11 07:36:56;;;;;;;3.42;1.73;;;;;;;;;;4950230;29;20020;-96
2021/08/11 07:39:53;;;;;;;4.32;1.90;;;;;;;;;;5345335;23;20058;-96
2021/08/11 07:45:04;;;;;;;8.10;2.50;;;;;;;;;;5644993;23;20054;-92
2021/08/11 08:08:57;;;;;;;14.73;1.95;;;;;;;;;;5534312;23;20517;-96
2021/08/11 08:11:23;;;;;;;5.28;1.48;;;;;;;;;;4914625;29;20056;-95
2021/08/11 08:13:49;;;;;;;5.63;1.80;;;;;;;;;;4906152;29;20035;-95
2021/08/11 08:16:58;;;;;;;;;;;;;;;;;;;;;
2021/08/11 08:19:57;;;;;;;2.28;1.83;;;;;;;;;;4944970;29;20059;-96
2021/08/11 08:22:40;;;;;;;;;;;37.60;32.50;;;;;;4953366;28;20064;-94
2021/08/11 08:25:39;;;;;;;;;;;;;;;;;;;;;
2021/08/11 08:29:07;;;;;;;4.45;1.92;;;38.60;29.40;;;;;;5511839;23;20063;-95
2021/08/11 08:31:39;;;;;;;4.82;2.55;;;;;;;;;;5203275;23;20088;-96
2021/08/11 08:34:05;;;;;;;2.53;1.52;;;;;;;;;;4917633;29;20039;-95
2021/08/11 08:36:31;;;;;;;4.43;1.90;;;;;;;;;;4913020;29;20032;-94
2021/08/11 08:38:57;;;;;;;3.85;1.60;;;;;;;;;;4916760;29;20092;-95
2021/08/11 08:41:24;;;;;;;4.70;1.90;;;;;;;;;;4924273;29;20039;-96
2021/08/11 08:43:50;;;;;;;6.15;1.88;;;;;;;;;;4917688;29;20058;-93
2021/08/11 08:46:17;;;;;;;2.97;1.92;;;;;;;;;;4906252;29;20111;-93
2021/08/11 08:48:43;;;;;;;4.10;1.92;;;;;;;;;;4910567;29;20043;-93
2021/08/11 08:51:13;;;;;;;3.63;1.42;;;;;;;;;;4900655;29;20511;-91
2021/08/11 08:53:40;;;;;;;3.15;1.55;;;;;;;;;;4919135;29;20044;-92
2021/08/11 08:56:07;;;;;;;4.00;1.52;;;;;;;;;;4920325;29;20035;-94
2021/08/11 08:58:38;;;;;;;6.28;2.67;;;;;;;;;;4923330;29;20445;-95
2021/08/11 09:01:05;;;;;;;3.53;2.05;;;;;;;;;;4924929;29;20040;-96
2021/08/11 09:03:36;;;;;;;;;;;38.00;32.10;;;;;;4928148;29;20489;-96
2021/08/11 09:06:08;;;;;;;3.30;1.45;;;;;;;;;;4927668;29;19938;-96
2021/08/11 09:21:11;;;;;;;6.10;1.83;;;;;;;;;;6169259;22;1443554;-96
2021/08/11 09:28:48;;;;;;;2.25;1.17;;;;;;;;;;6140197;23;20049;-87
2021/08/11 09:31:23;;;;;;;3.13;2.15;;;;;;;;;;6135063;23;20089;-92
2021/08/11 09:33:50;;;;;;;4.90;1.63;;;35.90;34.60;;;;;;6136558;23;20012;-94
2021/08/11 09:36:16;;;;;;;5.13;2.10;;;;;;;;;;6136043;23;20006;-96
2021/08/11 09:38:55;;;;;;;2.85;1.90;;;;;;;;;;6138748;23;20010;-95
2021/08/11 09:41:21;;;;;;;3.65;1.85;;;;;;;;;;6135937;23;20040;-95
2021/08/11 09:43:48;;;;;;;3.03;2.10;;;;;;;;;;6136365;23;20024;-94
2021/08/11 09:46:27;;;;;;;;;;;35.50;35.10;;;;;;6137734;23;20425;-96
2021/08/11 09:48:53;;;;;;;4.07;2.20;;;;;;;;;;6135069;23;19908;-89
2021/08/11 09:51:19;;;;;;;4.15;1.60;;;;;;;;;;6131376;23;20006;-89
2021/08/11 09:53:46;;;;;;;;;;;35.30;35.40;;;;;;6132070;23;20013;-89
2021/08/11 09:56:12;;;;;;;4.82;2.08;;;35.20;35.40;;;;;;6130050;23;19901;-89
2021/08/11 09:58:43;;;;;;;5.40;2.38;;;35.20;35.90;;;;;;6130273;23;20565;-88
2021/08/11 10:01:16;;;;;;;3.10;2.13;;;;;;;;;;6131884;23;20472;-91
2021/08/11 10:04:00;;;;;;;2.67;2.00;;;33.80;34.60;;;;;;6132444;23;20006;-90
2021/08/11 10:06:28;;;;;;;4.30;2.17;;;35.60;35.80;;;;;;6132872;23;20006;-88
2021/08/11 10:08:55;;;;;;;4.50;2.17;;;35.50;35.10;;;;;;6131882;23;20089;-90
2021/08/11 10:11:38;;;;;;;5.20;2.25;;;35.70;35.40;;;;;;6131117;23;20014;-89
2021/08/11 10:14:11;;;;;;;3.83;2.13;;;;;;;;;;6130722;23;19998;-89
2021/08/11 10:16:38;;;;;;;4.38;2.55;;;35.60;35.70;;;;;;6131969;23;20002;-89
2021/08/11 10:19:05;;;;;;;3.38;2.13;;;35.70;34.90;;;;;;6130494;23;20012;-88
2021/08/11 10:21:34;;;;;;;7.60;2.35;;;35.50;35.80;;;;;;6126091;23;20013;-89
2021/08/11 10:24:00;;;;;;;8.13;2.78;;;35.30;35.00;;;;;;6124526;23;20002;-89
2021/08/11 10:26:30;;;;;;;4.45;2.33;;;;;;;;;;6124513;23;20672;-89
2021/08/11 10:28:56;;;;;;;2.92;1.63;;;35.30;35.00;;;;;;6125643;23;20025;-89
2021/08/11 10:31:24;;;;;;;3.67;2.15;;;35.30;35.20;;;;;;6126137;23;20037;-89
2021/08/11 10:33:50;;;;;;;3.80;1.45;;;;;;;;;;6123794;23;20010;-88
2021/08/11 10:36:16;;;;;;;4.88;2.35;;;;;;;;;;6124177;23;20086;-89
2021/08/11 10:38:43;;;;;;;3.58;2.22;;;;;;;;;;6125431;23;20061;-90
2021/08/11 10:41:10;;;;;;;4.32;2.30;;;35.30;34.70;;;;;;6123838;23;20036;-89
2021/08/11 10:43:36;;;;;;;19.27;2.88;;;;;;;;;;6124067;23;20013;-89
2021/08/11 10:46:06;;;;;;;4.28;2.42;;;35.40;33.90;;;;;;6124451;23;20052;-90
2021/08/11 10:48:32;;;;;;;3.72;2.15;;;;;;;;;;6125242;23;20025;-88
2021/08/11 10:50:58;;;;;;;2.90;1.67;;;;;;;;;;6125884;23;20021;-88
2021/08/11 10:53:25;;;;;;;3.70;1.92;;;;;;;;;;6124299;23;20001;-88
2021/08/11 10:55:51;;;;;;;3.58;2.13;;;;;;;;;;6125568;23;20540;-90
2021/08/11 10:58:35;;;;;;;5.50;1.92;;;35.40;35.90;;;;;;6125934;23;20034;-89
2021/08/11 11:01:02;;;;;;;6.90;2.10;;;35.30;36.10;;;;;;6125646;23;20057;-88
2021/08/11 11:03:47;;;;;;;3.88;2.53;;;35.00;50.50;;;;;;6123390;23;20009;-89
2021/08/11 11:06:13;;;;;;;5.57;2.70;;;;;;;;;;6125874;23;20349;-90
2021/08/11 11:08:39;;;;;;;7.78;2.75;;;;;;;;;;6125051;23;20006;-89
2021/08/11 11:11:28;;;;;;;6.70;2.65;;;34.60;35.50;;;;;;6124788;23;20002;-89
2021/08/11 11:13:54;;;;;;;4.82;2.30;;;;;;;;;;6123720;23;20440;-87
2021/08/11 11:16:20;;;;;;;5.47;2.20;;;;;;;;;;6125651;23;20133;-90
2021/08/11 11:19:05;;;;;;;7.25;2.60;;;33.90;37.50;;;;;;6123795;23;20394;-91
2021/08/11 11:21:31;;;;;;;4.43;2.53;;;;;;;;;;6125264;23;20017;-91
2021/08/11 11:23:57;;;;;;;3.47;2.40;;;;;;;;;;6125998;23;20061;-91
2021/08/11 11:26:34;;;;;;;9.85;2.83;;;33.40;39.00;;;;;;6125683;23;20006;-91
2021/08/11 11:29:00;;;;;;;8.27;2.60;;;;;;;;;;6125377;23;20026;-92
2021/08/11 11:32:04;;;;;;;5.90;2.65;;;32.90;37.80;;;;;;6135564;23;20006;-96
2021/08/11 11:34:30;;;;;;;6.57;2.90;;;;;;;;;;6097601;23;20014;-87
2021/08/11 11:36:56;;;;;;;3.57;2.00;;;;;;;;;;6125152;23;20010;-85
2021/08/11 11:39:26;;;;;;;6.00;3.23;;;32.40;39.40;;;;;;6121769;23;20080;-86
2021/08/11 11:42:07;;;;;;;6.10;2.80;;;32.30;40.50;;;;;;6119525;23;20006;-85
2021/08/11 11:44:42;;;;;;;8.88;3.03;;;32.20;39.20;;;;;;6122399;23;20337;-84
2021/08/11 11:47:12;;;;;;;4.75;2.90;;;32.10;41.00;;;;;;6122024;23;20009;-85
2021/08/11 11:49:39;;;;;;;4.70;2.10;;;32.00;41.60;;;;;;6121433;23;20029;-85
2021/08/11 11:52:11;;;;;;;4.93;2.03;;;31.90;41.90;;;;;;6121728;23;20415;-85
2021/08/11 11:54:46;;;;;;;9.80;3.55;;;31.70;42.90;;;;;;6121423;23;20016;-85
2021/08/11 11:57:14;;;;;;;6.47;3.00;;;31.50;42.80;;;;;;6121386;23;20006;-84
2021/08/11 11:59:44;;;;;;;6.45;3.35;;;;;;;;;;6119911;23;20013;-84
2021/08/11 12:02:20;;;;;;;4.70;2.90;;;31.40;44.20;;;;;;6121997;23;20006;-84
2021/08/11 12:05:02;;;;;;;6.05;2.78;;;31.30;44.00;;;;;;6120959;23;20679;-83
2021/08/11 12:07:37;;;;;;;10.82;2.67;;;;;;;;;;6121932;23;20009;-84
2021/08/11 12:10:04;;;;;;;4.53;2.45;;;31.10;44.20;;;;;;6120810;23;20097;-84
2021/08/11 12:12:30;;;;;;;4.75;2.58;;;;;;;;;;6122025;23;20009;-93
2021/08/11 12:15:19;;;;;;;5.70;2.63;;;31.00;44.90;;;;;;6125096;23;20010;-87
2021/08/11 12:17:45;;;;;;;4.57;2.78;;;;;;;;;;6125723;23;20006;-95
2021/08/11 12:20:29;;;;;;;10.07;4.03;;;30.90;44.70;;;;;;6135848;23;20033;-96
2021/08/11 12:22:55;;;;;;;4.72;3.13;;;;;;;;;;6150253;23;20034;-96
2021/08/11 12:25:26;;;;;;;3.97;2.25;;;30.70;44.90;;;;;;6133120;23;20028;-93
2021/08/11 12:28:15;;;;;;;4.68;2.97;;;30.60;61.90;;;;;;6132342;23;19990;-94
2021/08/11 12:33:19;;;;;;;4.82;2.60;;;;;;;;;;6144824;23;20006;-96
2021/08/11 12:35:45;;;;;;;4.90;2.78;;;;;;;;;;6147675;23;20037;-96
2021/08/11 12:40:47;;;;;;;11.98;3.45;;;;;;;;;;6142878;23;20064;-96
2021/08/11 12:43:13;;;;;;;5.25;3.28;;;;;;;;;;6144213;23;20057;-96
2021/08/11 12:45:50;;;;;;;6.13;2.63;;;;;;;;;;6150092;23;20017;-96
2021/08/11 13:01:31;;;;;;;7.22;3.17;;;;;;;;;;6103260;23;20026;-96
2021/08/11 13:03:57;;;;;;;12.95;3.97;;;;;;;;;;6108401;23;20017;-95
2021/08/11 13:06:32;;;;;;;4.95;2.67;;;;;;;;;;6107597;23;20028;-92
2021/08/11 13:08:58;;;;;;;5.50;2.75;;;;;;;;;;6094619;23;20022;-91
2021/08/11 13:11:24;;;;;;;5.88;2.88;;;;;;;;;;6102831;23;20029;-95
2021/08/11 13:13:51;;;;;;;4.63;2.72;;;;;;;;;;6098880;23;20002;-93
2021/08/11 13:16:17;;;;;;;5.15;2.63;;;;;;;;;;6099462;23;20017;-95
2021/08/11 13:21:37;;;;;;;6.40;2.50;;;;;;;;;;6100497;23;20037;-95
2021/08/11 13:24:03;;;;;;;4.22;2.45;;;;;;;;;;6099647;23;20042;-93
2021/08/11 13:26:35;;;;;;;8.25;3.17;;;;;;;;;;6084847;23;20034;-96
2021/08/11 13:29:43;;;;;;;5.72;2.63;;;;;;;;;;6111605;23;19994;-95
2021/08/11 13:32:13;;;;;;;6.00;3.33;;;;;;;;;;5968558;24;20013;-95
2021/08/11 13:34:47;;;;;;;5.53;2.80;;;;;;;;;;5963543;24;20012;-96
2021/08/11 13:37:13;;;;;;;6.07;3.45;;;;;;;;;;5936352;24;20029;-94
2021/08/11 13:39:39;;;;;;;7.20;2.20;;;;;;;;;;5960243;24;20054;-92
2021/08/11 13:42:05;;;;;;;12.90;3.08;;;;;;;;;;5951893;24;20020;-92
2021/08/11 13:44:31;;;;;;;4.72;2.80;;;;;;;;;;5951460;24;20040;-94
2021/08/11 13:46:57;;;;;;;5.90;3.22;;;;;;;;;;5951042;24;20016;-93
2021/08/11 13:49:23;;;;;;;6.10;2.92;;;;;;;;;;5928373;24;20544;-94
2021/08/11 13:51:53;;;;;;;4.80;2.70;;;;;;;;;;5951903;24;20084;-94
2021/08/11 13:54:19;;;;;;;4.28;2.30;;;;;;;;;;5928681;24;20005;-94
2021/08/11 13:56:45;;;;;;;6.57;3.75;;;;;;;;;;5929803;24;20016;-93
2021/08/11 13:59:11;;;;;;;4.97;2.60;;;;;;;;;;5931012;24;20578;-92
2021/08/11 14:01:37;;;;;;;5.10;3.10;;;;;;;;;;5952934;24;20101;-96
2021/08/11 14:04:03;;;;;;;4.70;2.55;;;;;;;;;;5930075;24;20023;-93
2021/08/11 14:06:29;;;;;;;5.65;2.58;;;;;;;;;;5937984;23;20009;-94
2021/08/11 14:08:56;;;;;;;8.50;3.40;;;;;;;;;;6071340;23;20057;-93
2021/08/11 14:11:23;;;;;;;7.28;2.92;;;;;;;;;;6072299;23;20010;-95
2021/08/11 14:13:49;;;;;;;5.07;2.42;;;;;;;;;;6097396;23;20006;-94
2021/08/11 14:16:15;;;;;;;5.70;3.10;;;;;;;;;;6097472;23;20457;-94
2021/08/11 14:18:41;;;;;;;5.15;2.97;;;;;;;;;;6071762;23;20081;-95
2021/08/11 14:21:07;;;;;;;10.35;3.60;;;;;;;;;;6072512;23;20061;-94
2021/08/11 14:23:33;;;;;;;6.25;2.55;;;;;;;;;;6071785;23;20088;-94
2021/08/11 14:25:59;;;;;;;5.20;2.55;;;;;;;;;;6097625;23;20439;-92
2021/08/11 14:28:25;;;;;;;6.77;3.73;;;;;;;;;;6071581;23;20006;-92
2021/08/11 14:30:51;;;;;;;5.75;2.72;;;;;;;;;;6071770;23;20010;-94
2021/08/11 14:33:17;;;;;;;5.60;3.30;;;;;;;;;;6097217;23;19999;-92
2021/08/11 14:35:43;;;;;;;7.25;3.05;;;;;;;;;;6097646;23;20014;-95
2021/08/11 14:38:09;;;;;;;5.05;2.65;;;;;;;;;;6097451;23;20050;-92
2021/08/11 14:40:35;;;;;;;5.00;2.60;;;;;;;;;;6071060;23;20002;-92
2021/08/11 14:43:01;;;;;;;5.35;2.47;;;;;;;;;;6097091;23;20002;-92
2021/08/11 14:45:27;;;;;;;5.10;2.53;;;;;;;;;;6070929;23;20010;-91
2021/08/11 14:47:53;;;;;;;9.40;2.67;;;;;;;;;;6096941;23;20016;-91
2021/08/11 14:50:19;;;;;;;4.47;2.47;;;;;;;;;;6096669;23;20468;-93
2021/08/11 14:52:46;;;;;;;5.22;2.80;;;;;;;;;;6070759;23;20038;-92
2021/08/11 14:55:12;;;;;;;5.33;2.47;;;;;;;;;;6071575;23;20006;-93
2021/08/11 14:57:38;;;;;;;4.22;2.60;;;;;;;;;;6070268;23;20446;-89
2021/08/11 15:00:04;;;;;;;4.38;2.45;;;28.70;53.00;;;;;;6095892;23;20006;-90
2021/08/11 15:02:30;;;;;;;6.80;2.40;;;;;;;;;;6096222;23;20014;-91
2021/08/11 15:04:56;;;;;;;8.77;2.53;;;;;;;;;;6096418;23;20134;-90
2021/08/11 15:07:22;;;;;;;10.40;3.25;;;;;;;;;;6096279;23;20022;-88
2021/08/11 15:09:49;;;;;;;5.65;3.13;;;;;;;;;;6070538;23;20398;-89
2021/08/11 15:12:15;;;;;;;5.55;3.15;;;;;;;;;;6096557;23;20003;-88
2021/08/11 15:14:41;;;;;;;4.68;2.75;;;;;;;;;;6099818;23;20014;-91
2021/08/11 15:17:07;;;;;;;5.55;2.95;;;;;;;;;;6096511;23;20057;-91
2021/08/11 15:19:33;;;;;;;5.05;2.88;;;;;;;;;;6071372;23;20054;-92
2021/08/11 15:21:59;;;;;;;4.28;2.70;;;;;;;;;;6096770;23;20007;-90
2021/08/11 15:24:25;;;;;;;4.80;2.00;;;28.60;52.60;;;;;;6096713;23;20006;-91
2021/08/11 15:26:51;;;;;;;4.93;2.63;;;;;;;;;;6070744;23;20011;-88
2021/08/11 15:29:17;;;;;;;4.22;2.55;;;;;;;;;;6095334;23;20017;-89
2021/08/11 15:31:43;;;;;;;5.05;2.60;;;;;;;;;;6069737;23;20006;-88
2021/08/11 15:34:12;;;;;;;7.30;3.20;;;;;;;;;;6072790;23;20014;-96
2021/08/11 15:36:38;;;;;;;6.32;2.55;;;;;;;;;;6101674;23;20078;-96
2021/08/11 15:39:04;;;;;;;4.28;2.28;;;;;;;;;;6095689;23;20037;-92
2021/08/11 15:46:43;;;;;;;4.78;2.42;;;28.50;52.30;;;;;;6095964;23;20026;-95
2021/08/11 15:49:08;;;;;;;;;;;28.40;52.90;;;;;;6071082;23;20050;-95
2021/08/11 15:51:34;;;;;;;5.63;3.10;;;;;;;;;;6094694;23;19905;-89
2021/08/11 15:54:00;;;;;;;7.18;2.85;;;;;;;;;;6104058;23;20037;-95